Holtsville, New York
Current Conditions -  °F | °C
As of 12:56 PM on Sunday 21 Dec 2014 (Local Time) from KISP Reporting Station
Overcast Overcast  
Wind Chill: 29°   Ceiling: 900
Heat Index: 36°   Visibility: 10mi
Dew Point: 31°   Wind: 9mph
Humidity: 82%   Direction: 350°N
Pressure: 30.25"   Gusts: NA
Location:  40.81°N, 73.04°W
Report Text: KISP 211756Z 35008KT 10SM OVC009 02/M01 A3025 RMK AO2 SLP242 T00221006 10022 20006 58012
Loading
Personal Weather Stations






























Interactive Weather Map New forecast layout! Learn more

10-Day Weather Forecast

Advertisements
Track Severe Weather on mobile